Thunder radar more information blitzortung!


Radar de pluja more information rain snow radar


Visita la nostra xarxa de llocs de meteo:

Template documentation
and downloads

And another site



No particular awareness of the weather is required.    There are no Weather-warnings

Pagina Historial Weather Underground text

Diari Resum Setembre 29, 2017 Unitats:  Imperial    Mètric   Tant
« Previous Dia
SegĂźent Dia »
Diari Setmana Mensual Anual Personalitzada
  Maxima: Minima: Media:
Temperatura: 81 °F 59.9 °F 71.2 °F
Punt de rosada: 62.4 °F 55 °F 58.6 °F
Humitat: 90 % 46 % 66 %
Wind Speed: 9.2 mph 0 mph 3.7 mph
RĂ fegues de vent: 9.2 mph - -
Vent:- - SSW
Pression baro: 30.3 in 30.1 in -
Precipitacions: 0 in    
Historical Graphs
 
 
Dades de taula per Setembre 29, 2017
Temps Temperatura Punt de rosada Pression baro Vent Wind Speed RĂ fegues de vent Humitat Rainfall Rate (Hourly)
00:01 63.9 °F 57.2 °F 30.3 in NNW 1.2 mph 1.2 mph 79 % 0 in
00:06 63.9 °F 57.2 °F 30.3 in Calm     79 % 0 in
00:11 63.7 °F 57 °F 30.3 in Calm     79 % 0 in
03:55 60.4 °F 57.2 °F 30.3 in Calm   2 mph 89 % 0 in
04:05 61.3 °F 58.5 °F 30.3 in Calm   1 mph 90 % 0 in
04:15 62.8 °F 59.2 °F 30.3 in Calm   1 mph 88 % 0 in
04:25 63.5 °F 59.2 °F 30.3 in North 1 mph 1 mph 86 % 0 in
04:35 63.7 °F 59.2 °F 30.3 in NE 1 mph 2 mph 85 % 0 in
04:45 64.9 °F 59.7 °F 30.3 in Calm   2 mph 83 % 0 in
04:55 65.8 °F 59.7 °F 30.3 in NE 1 mph 1 mph 81 % 0 in
05:05 66.2 °F 59.5 °F 30.3 in Calm   2 mph 79 % 0 in
05:15 66.4 °F 59.4 °F 30.3 in ENE 2 mph 4 mph 78 % 0 in
05:25 66.9 °F 59.5 °F 30.3 in NE 2 mph 2 mph 77 % 0 in
10:27 67.5 °F 60.1 °F 30.3 in NNE 3.5 mph 3.5 mph 77 % 0 in
10:28 67.5 °F 60.1 °F 30.3 in ENE 3.6 mph 3.6 mph 77 % 0 in
10:31 67.3 °F 59.7 °F 30.3 in NE 3.5 mph 3.5 mph 77 % 0 in
10:36 68.2 °F 60.6 °F 30.3 in NNW 2.3 mph 2.3 mph 77 % 0 in
10:41 68.9 °F 61 °F 30.3 in North 4.6 mph 4.6 mph 76 % 0 in
10:46 69.1 °F 60.8 °F 30.3 in NNW 2.4 mph 2.4 mph 75 % 0 in
10:51 68.7 °F 60.1 °F 30.3 in NNE 3.3 mph 3.3 mph 74 % 0 in
10:56 69.3 °F 60.6 °F 30.3 in NE 2.3 mph 2.3 mph 74 % 0 in
11:01 69.6 °F 60.6 °F 30.3 in ENE 2.3 mph 2.3 mph 73 % 0 in
11:06 70.2 °F 61.2 °F 30.3 in NW 3.5 mph 3.5 mph 73 % 0 in
11:11 69.4 °F 60.4 °F 30.3 in South 2.3 mph 2.3 mph 73 % 0 in
11:16 70.7 °F 61.2 °F 30.3 in East 2.3 mph   72 % 0 in
11:21 71.4 °F 61.5 °F 30.3 in SE 2.3 mph 2.3 mph 71 % 0 in
11:26 71.6 °F 61 °F 30.3 in SSE 3.5 mph   69 % 0 in
11:31 72.3 °F 61.5 °F 30.3 in SSE 1.2 mph   69 % 0 in
11:36 72.7 °F 61.5 °F 30.3 in NNE 3.5 mph 3.5 mph 68 % 0 in
11:41 72 °F 60.4 °F 30.3 in ENE 2.6 mph 2.6 mph 67 % 0 in
11:46 72.7 °F 61.5 °F 30.3 in NNE 2.3 mph 2.3 mph 68 % 0 in
11:51 73 °F 61.9 °F 30.3 in WNW 3.5 mph 3.5 mph 68 % 0 in
11:56 72.3 °F 61.2 °F 30.3 in West 3.5 mph 3.5 mph 68 % 0 in
12:01 73.2 °F 61.5 °F 30.2 in NNW 2.3 mph 2.3 mph 67 % 0 in
12:06 73.9 °F 61.9 °F 30.2 in West 3.5 mph 3.5 mph 66 % 0 in
12:11 75 °F 62.4 °F 30.2 in SW 3.3 mph 3.3 mph 65 % 0 in
12:16 74.7 °F 61.7 °F 30.2 in West 5.6 mph 5.6 mph 64 % 0 in
12:21 75.2 °F 61.7 °F 30.2 in SSW 2.4 mph 2.4 mph 63 % 0 in
12:26 75.4 °F 61.5 °F 30.2 in SSW 5.8 mph 5.8 mph 62 % 0 in
12:31 74.8 °F 61 °F 30.2 in SW 4.6 mph 4.6 mph 62 % 0 in
12:36 74.8 °F 60.1 °F 30.2 in ESE 4.6 mph 4.6 mph 60 % 0 in
12:41 75.4 °F 60.1 °F 30.2 in West 2.3 mph 2.3 mph 59 % 0 in
12:46 76.1 °F 59.7 °F 30.2 in SE 4.6 mph 4.6 mph 57 % 0 in
12:51 76.3 °F 60.4 °F 30.2 in SSW 5.8 mph 5.8 mph 58 % 0 in
12:56 75.9 °F 59.5 °F 30.2 in SW 5.8 mph 5.8 mph 57 % 0 in
13:01 76.1 °F 59.4 °F 30.2 in NW 3.5 mph 3.5 mph 56 % 0 in
13:06 75.7 °F 58.5 °F 30.2 in ESE 3.5 mph 3.5 mph 55 % 0 in
13:11 76.8 °F 59.4 °F 30.2 in SW 2.3 mph 2.3 mph 55 % 0 in
13:16 78.1 °F 59.5 °F 30.2 in SE 3.1 mph 3.1 mph 53 % 0 in
13:21 77.7 °F 59.2 °F 30.2 in ESE 3.5 mph 3.5 mph 53 % 0 in
13:26 77.9 °F 59.9 °F 30.2 in SSW 5.8 mph 5.8 mph 54 % 0 in
13:31 78.8 °F 59.7 °F 30.2 in ESE 3.5 mph 3.5 mph 52 % 0 in
13:36 79 °F 59.9 °F 30.2 in WSW 5.8 mph 5.8 mph 52 % 0 in
13:41 79.2 °F 58.8 °F 30.2 in SW 3.5 mph 3.5 mph 50 % 0 in
13:46 78.6 °F 58.5 °F 30.2 in SSE 3.5 mph 3.5 mph 50 % 0 in
13:51 78.3 °F 57.6 °F 30.2 in ESE 2.4 mph 2.4 mph 49 % 0 in
13:56 79.5 °F 58.6 °F 30.2 in WSW 3.8 mph 3.8 mph 49 % 0 in
14:01 79.2 °F 58.8 °F 30.2 in NNE 3.5 mph 3.5 mph 50 % 0 in
14:06 79.2 °F 58.8 °F 30.2 in South 4.3 mph 4.3 mph 50 % 0 in
14:11 80.1 °F 59.7 °F 30.2 in SW 6.9 mph 6.9 mph 50 % 0 in
14:16 80.6 °F 59.2 °F 30.2 in SW 3.5 mph 3.8 mph 48 % 0 in
14:21 80.6 °F 57.9 °F 30.2 in SSE 3.5 mph 3.6 mph 46 % 0 in
14:26 80.6 °F 57.9 °F 30.2 in East 4.3 mph 4.3 mph 46 % 0 in
14:31 79.5 °F 57.6 °F 30.2 in ESE 8.1 mph 8.1 mph 47 % 0 in
14:36 79 °F 58.3 °F 30.2 in SSE 4.6 mph 4.6 mph 49 % 0 in
14:41 78.3 °F 58.6 °F 30.2 in ESE 5.8 mph 5.8 mph 51 % 0 in
14:46 78.4 °F 58.8 °F 30.2 in ESE 8.1 mph 8.1 mph 51 % 0 in
14:51 77.2 °F 57.7 °F 30.2 in ENE 5.8 mph 5.8 mph 51 % 0 in
14:56 77 °F 57.6 °F 30.2 in SE 6.4 mph 6.4 mph 51 % 0 in
15:01 77.2 °F 58.3 °F 30.2 in East 8.1 mph 8.1 mph 52 % 0 in
15:06 76.8 °F 58.5 °F 30.2 in ENE 2.6 mph 2.6 mph 53 % 0 in
15:11 76.5 °F 58.1 °F 30.2 in ENE 4.6 mph 4.6 mph 53 % 0 in
15:16 77 °F 57.9 °F 30.2 in ENE 5.8 mph 5.8 mph 52 % 0 in
15:21 77.4 °F 58.8 °F 30.2 in ESE 5.8 mph 5.8 mph 53 % 0 in
15:26 76.3 °F 58.5 °F 30.2 in ESE 5.8 mph 5.8 mph 54 % 0 in
15:31 76.6 °F 58.6 °F 30.2 in NE 5.9 mph 5.9 mph 54 % 0 in
15:36 76.6 °F 58.6 °F 30.2 in ESE 5.8 mph 5.8 mph 54 % 0 in
15:37 76.6 °F 58.6 °F 30.2 in ESE 6.4 mph 6.4 mph 54 % 0 in
15:42 77 °F 58.6 °F 30.2 in ESE 6.9 mph 6.9 mph 53 % 0 in
15:47 77.9 °F 59.9 °F 30.2 in SSW 6.9 mph 6.9 mph 54 % 0 in
15:52 77.9 °F 59.4 °F 30.2 in ENE 4.6 mph 4.6 mph 53 % 0 in
15:57 78.1 °F 60.1 °F 30.2 in SW 4.6 mph 4.6 mph 54 % 0 in
15:58 78.4 °F 60.4 °F 30.2 in SE 5.4 mph 5.4 mph 54 % 0 in
16:03 77.5 °F 59.2 °F 30.2 in NNE 5.8 mph 5.8 mph 53 % 0 in
16:08 78.6 °F 60.1 °F 30.2 in SSE 4.6 mph 4.6 mph 53 % 0 in
16:13 79.5 °F 60.4 °F 30.2 in South 3.5 mph 3.5 mph 52 % 0 in
16:18 79.7 °F 60.1 °F 30.2 in SW 4.6 mph 4.6 mph 51 % 0 in
16:23 80.6 °F 60.8 °F 30.2 in SW 7.4 mph 7.4 mph 51 % 0 in
16:28 80.8 °F 60.4 °F 30.2 in SSW 6.4 mph 6.4 mph 50 % 0 in
16:33 81 °F 60.1 °F 30.2 in SW 5.8 mph 5.8 mph 49 % 0 in
16:38 80.2 °F 59.9 °F 30.2 in SSW 8.1 mph 8.1 mph 50 % 0 in
16:43 80.4 °F 60.1 °F 30.2 in SW 6.2 mph 6.2 mph 50 % 0 in
16:48 80.2 °F 59.4 °F 30.2 in SW 8.1 mph 8.1 mph 49 % 0 in
16:53 80.2 °F 59.4 °F 30.2 in SSW 5.8 mph 5.8 mph 49 % 0 in
16:58 80.2 °F 59.4 °F 30.2 in SSW 6.9 mph 6.9 mph 49 % 0 in
17:03 80.2 °F 59.4 °F 30.2 in SW 9.2 mph 9.2 mph 49 % 0 in
17:08 80.1 °F 59.2 °F 30.2 in WSW 6.9 mph 6.9 mph 49 % 0 in
17:13 80.2 °F 59.4 °F 30.2 in West 6.4 mph 6.4 mph 49 % 0 in
17:18 79.5 °F 58.6 °F 30.1 in WSW 5.8 mph 5.8 mph 49 % 0 in
17:23 79.2 °F 58.5 °F 30.1 in SW 5.8 mph 5.8 mph 49 % 0 in
17:28 79.9 °F 59.5 °F 30.1 in SW 4.3 mph 4.3 mph 50 % 0 in
17:33 79.2 °F 58.8 °F 30.1 in South 5.8 mph 5.8 mph 50 % 0 in
17:38 79 °F 58.8 °F 30.1 in WSW 4.6 mph 5.4 mph 50 % 0 in
17:43 78.1 °F 57.9 °F 30.1 in SW 6.9 mph 6.9 mph 50 % 0 in
17:48 77.9 °F 57.7 °F 30.1 in SW 4.7 mph 4.7 mph 50 % 0 in
17:53 77.5 °F 57.4 °F 30.1 in SW 6.9 mph 6.9 mph 50 % 0 in
17:58 77.5 °F 57.9 °F 30.1 in SW 4.9 mph 4.9 mph 51 % 0 in
18:03 77.2 °F 57.7 °F 30.1 in WSW 6.9 mph 6.9 mph 51 % 0 in
18:08 77 °F 57.6 °F 30.1 in SW 5.8 mph 5.8 mph 51 % 0 in
18:13 76.5 °F 57.6 °F 30.1 in WSW 5.8 mph 5.8 mph 52 % 0 in
18:18 76.3 °F 57.9 °F 30.1 in WSW 4.6 mph 4.6 mph 53 % 0 in
18:23 76.3 °F 57.9 °F 30.1 in SW 4.6 mph 4.6 mph 53 % 0 in
18:28 76.1 °F 58.3 °F 30.1 in South 6.2 mph 6.2 mph 54 % 0 in
18:29 75.9 °F 58.1 °F 30.1 in SSW 5.8 mph 5.8 mph 54 % 0 in
18:34 75.4 °F 57.6 °F 30.1 in West 9.2 mph 9.2 mph 54 % 0 in
18:39 75 °F 57.7 °F 30.1 in SW 4.6 mph 4.6 mph 55 % 0 in
18:44 74.5 °F 57.7 °F 30.1 in SSW 9.2 mph 9.2 mph 56 % 0 in
18:49 73.9 °F 57.4 °F 30.1 in SSW 4.6 mph 4.6 mph 56 % 0 in
18:54 73.9 °F 57.7 °F 30.1 in WSW 5.8 mph 5.8 mph 57 % 0 in
18:59 73.4 °F 57.2 °F 30.1 in SW 9.2 mph 9.2 mph 57 % 0 in
19:04 72.9 °F 57.2 °F 30.1 in SW 5.8 mph 5.8 mph 58 % 0 in
19:09 72.5 °F 57.4 °F 30.1 in SSW 4.6 mph 4.6 mph 59 % 0 in
19:14 72.3 °F 57.2 °F 30.1 in South 8.1 mph 8.1 mph 59 % 0 in
19:19 72 °F 57.4 °F 30.1 in SSW 4.6 mph 4.6 mph 60 % 0 in
19:24 71.6 °F 57 °F 30.1 in WSW 5.8 mph 5.8 mph 60 % 0 in
19:26 71.4 °F 57.4 °F 30.1 in SW 6.9 mph 6.9 mph 61 % 0 in
19:30 64.6 °F 57.9 °F 30.2 in WSW 1 mph 1 mph 79 % 0 in
19:31 71.2 °F 57.6 °F 30.1 in WSW 8.1 mph 8.1 mph 62 % 0 in
19:36 70.9 °F 57.2 °F 30.1 in SW 5.8 mph 5.8 mph 62 % 0 in
19:40 64.4 °F 57.7 °F 30.2 in Calm   1 mph 79 % 0 in
19:41 70.7 °F 57.6 °F 30.1 in SW 5.8 mph 5.8 mph 63 % 0 in
19:46 70.3 °F 57 °F 30.2 in SW 5.8 mph 5.8 mph 63 % 0 in
19:50 64.4 °F 57.7 °F 30.2 in WNW 1 mph 2 mph 79 % 0 in
19:51 70.2 °F 57.4 °F 30.2 in SW 8.1 mph 8.1 mph 64 % 0 in
19:56 69.8 °F 57.6 °F 30.2 in WSW 4.6 mph 4.6 mph 65 % 0 in
20:00 64 °F 57.4 °F 30.2 in West 1 mph 2 mph 79 % 0 in
20:01 69.6 °F 57.4 °F 30.2 in SW 6 mph 6 mph 65 % 0 in
20:06 69.4 °F 57.6 °F 30.2 in SW 5.8 mph 5.8 mph 66 % 0 in
20:10 63.7 °F 57.4 °F 30.2 in WSW 1 mph 2 mph 80 % 0 in
20:11 69.3 °F 57.4 °F 30.2 in SW 6 mph 6 mph 66 % 0 in
20:16 69.1 °F 57.7 °F 30.2 in SW 6.9 mph 6.9 mph 67 % 0 in
20:20 63.7 °F 57.4 °F 30.2 in West 1 mph 2 mph 80 % 0 in
20:21 68.9 °F 57.6 °F 30.2 in SW 5.8 mph 5.8 mph 67 % 0 in
20:26 68.7 °F 57.7 °F 30.2 in WSW 6.2 mph 6.2 mph 68 % 0 in
20:30 63.5 °F 57.2 °F 30.2 in West 1 mph 2 mph 80 % 0 in
20:31 68.5 °F 57.9 °F 30.2 in WSW 4.6 mph 4.6 mph 69 % 0 in
20:36 68.4 °F 57.7 °F 30.2 in SW 5.8 mph 5.8 mph 69 % 0 in
20:40 63.5 °F 57.6 °F 30.2 in WSW 1 mph 2 mph 81 % 0 in
20:41 68.2 °F 57.6 °F 30.2 in South 4.6 mph 4.6 mph 69 % 0 in
20:42 68.2 °F 57.6 °F 30.2 in SW 4.6 mph 4.6 mph 69 % 0 in
20:47 68 °F 57.7 °F 30.2 in SW 2.6 mph 2.6 mph 70 % 0 in
20:50 63.5 °F 57.6 °F 30.2 in Calm   2 mph 81 % 0 in
20:52 68 °F 57.7 °F 30.2 in WSW 4.7 mph 4.7 mph 70 % 0 in
20:57 67.8 °F 58.1 °F 30.2 in West 4 mph 4 mph 71 % 0 in
21:00 63.3 °F 57.7 °F 30.2 in Calm   2 mph 82 % 0 in
21:02 67.6 °F 57.9 °F 30.2 in WSW 5.8 mph 5.8 mph 71 % 0 in
21:07 67.6 °F 58.3 °F 30.2 in SW 3.5 mph 3.5 mph 72 % 0 in
21:10 63 °F 57.4 °F 30.2 in Calm     82 % 0 in
21:12 67.5 °F 58.1 °F 30.2 in SW 2.4 mph 2.4 mph 72 % 0 in
21:17 67.3 °F 57.9 °F 30.2 in SSW 3.5 mph 3.5 mph 72 % 0 in
21:20 62.4 °F 57.2 °F 30.2 in NW 1 mph 2 mph 83 % 0 in
21:22 67.1 °F 58.3 °F 30.2 in SW 2.3 mph 2.3 mph 73 % 0 in
21:27 67.1 °F 58.3 °F 30.2 in SW 3.5 mph 3.5 mph 73 % 0 in
21:30 62.1 °F 56.8 °F 30.2 in SSW 1 mph 1 mph 83 % 0 in
21:32 66.9 °F 57.9 °F 30.2 in West 3.5 mph 3.5 mph 73 % 0 in
21:37 66.9 °F 57.9 °F 30.2 in SW 1.4 mph 1.4 mph 73 % 0 in
21:40 61.9 °F 56.7 °F 30.2 in Calm   2 mph 83 % 0 in
21:42 66.7 °F 57.7 °F 30.2 in West 2 mph 2 mph 73 % 0 in
21:47 66.7 °F 58.3 °F 30.2 in SW 2 mph 2 mph 74 % 0 in
21:50 62.1 °F 56.8 °F 30.2 in West 1 mph 2 mph 83 % 0 in
21:52 66.7 °F 58.3 °F 30.2 in WSW 3.5 mph 3.5 mph 74 % 0 in
21:57 66.6 °F 57.9 °F 30.2 in SW 2.3 mph 2.3 mph 74 % 0 in
22:00 61.7 °F 56.5 °F 30.2 in Calm   1 mph 83 % 0 in
22:02 66.6 °F 57.9 °F 30.2 in WSW 2.3 mph 2.3 mph 74 % 0 in
22:07 66.4 °F 58.3 °F 30.2 in SW 1.2 mph 1.2 mph 75 % 0 in
22:12 66.4 °F 58.3 °F 30.2 in SW 1.4 mph 1.4 mph 75 % 0 in
22:17 66.2 °F 57.9 °F 30.2 in SW 2.3 mph 2.3 mph 75 % 0 in
22:20 61.9 °F 57 °F 30.2 in Calm     84 % 0 in
22:22 66.2 °F 57.9 °F 30.2 in WSW 1.2 mph 1.2 mph 75 % 0 in
22:27 66.2 °F 57.9 °F 30.2 in West 2.3 mph 2.3 mph 75 % 0 in
22:30 61.3 °F 56.5 °F 30.2 in Calm   1 mph 84 % 0 in
22:32 66.2 °F 57.9 °F 30.2 in WSW 2.3 mph 2.3 mph 75 % 0 in
22:37 66.2 °F 57.9 °F 30.2 in WSW 1.6 mph 1.6 mph 75 % 0 in
22:40 60.8 °F 55.9 °F 30.2 in Calm     84 % 0 in
22:42 66.2 °F 58.5 °F 30.2 in WSW 1.4 mph 1.4 mph 76 % 0 in
22:47 66 °F 58.6 °F 30.2 in SW 1.2 mph   77 % 0 in
22:52 65.8 °F 58.5 °F 30.2 in SW 2.3 mph 2.3 mph 77 % 0 in
22:57 65.7 °F 58.3 °F 30.2 in SW 1.6 mph 1.6 mph 77 % 0 in
23:00 60.1 °F 55.2 °F 30.2 in Calm   2 mph 84 % 0 in
23:02 65.3 °F 57.9 °F 30.2 in SW 2.3 mph 2.3 mph 77 % 0 in
23:07 65.3 °F 57.9 °F 30.2 in SW 1.2 mph 1.2 mph 77 % 0 in
23:10 59.9 °F 55 °F 30.2 in Calm     84 % 0 in
23:12 65.1 °F 58.1 °F 30.2 in Calm     78 % 0 in
23:17 65.1 °F 58.1 °F 30.2 in Calm     78 % 0 in
23:20 59.9 °F 55.4 °F 30.2 in Calm     85 % 0 in
23:22 64.9 °F 57.9 °F 30.2 in SW 1.2 mph 1.2 mph 78 % 0 in
23:27 64.9 °F 57.9 °F 30.2 in SW 1.6 mph   78 % 0 in
23:30 59.9 °F 55.4 °F 30.2 in Calm     85 % 0 in
23:32 64.8 °F 57.7 °F 30.2 in SW 1.2 mph 1.2 mph 78 % 0 in
23:37 64.8 °F 57.7 °F 30.2 in Calm     78 % 0 in
23:40 60.1 °F 55.9 °F 30.2 in Calm     86 % 0 in
23:42 64.8 °F 57.7 °F 30.2 in West 2.3 mph 2.3 mph 78 % 0 in
23:47 64.8 °F 57.7 °F 30.2 in West 2.3 mph 2.3 mph 78 % 0 in
23:52 64.8 °F 57.7 °F 30.2 in West 2.3 mph 2.3 mph 78 % 0 in
23:57 64.8 °F 57.7 °F 30.2 in West 2.3 mph 2.3 mph 78 % 0 in
Meteo Sesrovires
Elogis d' Weather Underground - 3.5 mb

Guio original per  Jim McMurry - jmcmurry@mwt.net Adaptat per a la plantilla per  Wim van der Kuil - Leuven-Template.eu

Trobareu la nostra informacio del temps tambe a:

Weather Underground

AWEKAS